sensor_id;sensor_type;location;lat;lon;timestamp;pressure;altitude;pressure_sealevel;temperature;humidity
72961;BME280;61141;46.204;19.774;2023-05-08T00:01:14;100738.87;;;12.04;74.72
72961;BME280;61141;46.204;19.774;2023-05-08T00:04:18;100744.09;;;12.13;76.06
72961;BME280;61141;46.204;19.774;2023-05-08T00:07:22;100735.97;;;11.71;73.98
72961;BME280;61141;46.204;19.774;2023-05-08T00:10:25;100740.25;;;11.91;75.33
72961;BME280;61141;46.204;19.774;2023-05-08T00:13:28;100733.28;;;11.97;74.58
72961;BME280;61141;46.204;19.774;2023-05-08T00:16:31;100743.38;;;11.90;74.42
72961;BME280;61141;46.204;19.774;2023-05-08T00:19:34;100746.59;;;11.95;74.98
72961;BME280;61141;46.204;19.774;2023-05-08T00:22:37;100745.47;;;12.00;74.81
72961;BME280;61141;46.204;19.774;2023-05-08T00:25:40;100748.38;;;12.10;74.46
72961;BME280;61141;46.204;19.774;2023-05-08T00:28:43;100746.91;;;12.16;74.37
72961;BME280;61141;46.204;19.774;2023-05-08T00:31:46;100737.12;;;11.93;74.47
72961;BME280;61141;46.204;19.774;2023-05-08T00:34:49;100741.16;;;11.53;74.84
72961;BME280;61141;46.204;19.774;2023-05-08T00:37:52;100737.28;;;11.12;74.76
72961;BME280;61141;46.204;19.774;2023-05-08T00:40:55;100740.66;;;11.06;76.75
72961;BME280;61141;46.204;19.774;2023-05-08T00:43:57;100748.97;;;11.09;74.57
72961;BME280;61141;46.204;19.774;2023-05-08T00:47:01;100743.84;;;10.89;77.80
72961;BME280;61141;46.204;19.774;2023-05-08T00:50:04;100753.16;;;10.84;77.58
72961;BME280;61141;46.204;19.774;2023-05-08T00:53:07;100757.03;;;10.64;76.85
72961;BME280;61141;46.204;19.774;2023-05-08T00:56:14;100748.09;;;10.67;77.41
72961;BME280;61141;46.204;19.774;2023-05-08T00:59:19;100763.25;;;10.61;78.17
72961;BME280;61141;46.204;19.774;2023-05-08T01:02:22;100763.53;;;10.75;77.31
72961;BME280;61141;46.204;19.774;2023-05-08T01:05:26;100769.75;;;10.72;77.95
72961;BME280;61141;46.204;19.774;2023-05-08T01:08:31;100774.06;;;10.73;77.61
72961;BME280;61141;46.204;19.774;2023-05-08T01:12:17;100772.06;;;10.70;77.25
72961;BME280;61141;46.204;19.774;2023-05-08T01:15:34;100775.50;;;10.67;77.46
72961;BME280;61141;46.204;19.774;2023-05-08T01:18:46;100781.28;;;10.81;77.54
72961;BME280;61141;46.204;19.774;2023-05-08T01:21:57;100795.56;;;10.36;78.08
72961;BME280;61141;46.204;19.774;2023-05-08T01:32:14;100799.41;;;10.51;76.54
72961;BME280;61141;46.204;19.774;2023-05-08T01:38:29;100791.16;;;10.32;77.59
72961;BME280;61141;46.204;19.774;2023-05-08T01:41:35;100775.34;;;10.41;77.39
72961;BME280;61141;46.204;19.774;2023-05-08T01:44:44;100781.81;;;10.33;77.44
72961;BME280;61141;46.204;19.774;2023-05-08T01:47:54;100776.41;;;10.55;79.16
72961;BME280;61141;46.204;19.774;2023-05-08T01:51:07;100788.66;;;10.42;78.77
72961;BME280;61141;46.204;19.774;2023-05-08T01:54:15;100797.00;;;10.84;77.69
72961;BME280;61141;46.204;19.774;2023-05-08T01:57:23;100788.91;;;10.72;77.90
72961;BME280;61141;46.204;19.774;2023-05-08T02:00:28;100775.00;;;10.61;77.46
72961;BME280;61141;46.204;19.774;2023-05-08T02:03:33;100797.22;;;10.95;77.37
72961;BME280;61141;46.204;19.774;2023-05-08T02:06:37;100792.53;;;10.76;77.29
72961;BME280;61141;46.204;19.774;2023-05-08T02:09:42;100804.34;;;10.61;77.83
72961;BME280;61141;46.204;19.774;2023-05-08T02:12:46;100801.84;;;10.37;77.43
72961;BME280;61141;46.204;19.774;2023-05-08T02:15:52;100796.06;;;10.57;79.03
72961;BME280;61141;46.204;19.774;2023-05-08T02:18:57;100802.31;;;10.58;77.96
72961;BME280;61141;46.204;19.774;2023-05-08T02:22:02;100798.22;;;10.68;78.37
72961;BME280;61141;46.204;19.774;2023-05-08T02:25:07;100813.88;;;10.32;78.04
72961;BME280;61141;46.204;19.774;2023-05-08T02:28:11;100807.69;;;10.04;78.56
72961;BME280;61141;46.204;19.774;2023-05-08T02:31:15;100814.47;;;10.26;76.91
72961;BME280;61141;46.204;19.774;2023-05-08T02:34:20;100812.16;;;10.12;77.46
72961;BME280;61141;46.204;19.774;2023-05-08T02:37:25;100811.28;;;10.39;76.33
72961;BME280;61141;46.204;19.774;2023-05-08T02:40:30;100811.56;;;10.34;77.27
72961;BME280;61141;46.204;19.774;2023-05-08T02:43:34;100806.03;;;10.15;77.00
72961;BME280;61141;46.204;19.774;2023-05-08T02:46:48;100808.44;;;10.36;76.96
72961;BME280;61141;46.204;19.774;2023-05-08T02:50:03;100819.16;;;10.41;75.73
72961;BME280;61141;46.204;19.774;2023-05-08T02:53:17;100816.59;;;10.17;75.65
72961;BME280;61141;46.204;19.774;2023-05-08T02:56:29;100824.44;;;10.02;76.01
72961;BME280;61141;46.204;19.774;2023-05-08T02:59:38;100825.44;;;10.26;76.84
72961;BME280;61141;46.204;19.774;2023-05-08T03:02:49;100828.44;;;10.21;76.44
72961;BME280;61141;46.204;19.774;2023-05-08T03:05:56;100830.03;;;10.22;77.65
72961;BME280;61141;46.204;19.774;2023-05-08T03:09:01;100834.34;;;10.07;76.78
72961;BME280;61141;46.204;19.774;2023-05-08T03:12:10;100828.56;;;9.65;77.52
72961;BME280;61141;46.204;19.774;2023-05-08T03:15:18;100828.94;;;9.79;80.06
72961;BME280;61141;46.204;19.774;2023-05-08T03:18:27;100837.03;;;9.60;79.72
72961;BME280;61141;46.204;19.774;2023-05-08T03:21:33;100829.66;;;9.76;78.87
72961;BME280;61141;46.204;19.774;2023-05-08T03:24:41;100829.31;;;9.93;78.24
72961;BME280;61141;46.204;19.774;2023-05-08T03:27:46;100826.47;;;10.05;78.97
72961;BME280;61141;46.204;19.774;2023-05-08T03:30:51;100831.25;;;10.40;77.88
72961;BME280;61141;46.204;19.774;2023-05-08T03:33:55;100834.69;;;10.05;78.64
72961;BME280;61141;46.204;19.774;2023-05-08T03:36:58;100837.00;;;9.88;78.43
72961;BME280;61141;46.204;19.774;2023-05-08T03:40:01;100838.38;;;9.82;82.05
72961;BME280;61141;46.204;19.774;2023-05-08T03:43:06;100837.84;;;9.76;79.87
72961;BME280;61141;46.204;19.774;2023-05-08T03:46:09;100840.78;;;9.40;81.56
72961;BME280;61141;46.204;19.774;2023-05-08T03:49:13;100839.81;;;9.48;81.69
72961;BME280;61141;46.204;19.774;2023-05-08T03:52:16;100851.97;;;9.35;82.95
72961;BME280;61141;46.204;19.774;2023-05-08T03:55:19;100847.22;;;9.20;82.91
72961;BME280;61141;46.204;19.774;2023-05-08T03:58:33;100849.19;;;9.47;84.78
72961;BME280;61141;46.204;19.774;2023-05-08T04:01:43;100852.75;;;9.63;83.90
72961;BME280;61141;46.204;19.774;2023-05-08T04:05:16;100840.13;;;9.31;83.55
72961;BME280;61141;46.204;19.774;2023-05-08T04:08:28;100854.81;;;9.11;84.09
72961;BME280;61141;46.204;19.774;2023-05-08T04:11:41;100860.41;;;9.58;83.70
72961;BME280;61141;46.204;19.774;2023-05-08T04:18:17;100857.84;;;9.21;84.73
72961;BME280;61141;46.204;19.774;2023-05-08T04:21:23;100857.16;;;9.24;85.52
72961;BME280;61141;46.204;19.774;2023-05-08T04:24:29;100860.22;;;9.51;84.96
72961;BME280;61141;46.204;19.774;2023-05-08T04:27:35;100864.03;;;9.34;84.15
72961;BME280;61141;46.204;19.774;2023-05-08T04:30:38;100871.84;;;9.20;84.99
72961;BME280;61141;46.204;19.774;2023-05-08T04:33:43;100874.66;;;9.35;84.41
72961;BME280;61141;46.204;19.774;2023-05-08T04:36:47;100880.09;;;9.08;83.63
72961;BME280;61141;46.204;19.774;2023-05-08T04:39:50;100882.59;;;9.40;82.85
72961;BME280;61141;46.204;19.774;2023-05-08T04:42:54;100878.19;;;9.36;83.99
72961;BME280;61141;46.204;19.774;2023-05-08T04:45:57;100891.22;;;9.70;82.52
72961;BME280;61141;46.204;19.774;2023-05-08T04:49:01;100888.66;;;9.34;81.99
72961;BME280;61141;46.204;19.774;2023-05-08T04:52:05;100878.16;;;9.08;83.14
72961;BME280;61141;46.204;19.774;2023-05-08T04:55:09;100887.84;;;9.33;82.86
72961;BME280;61141;46.204;19.774;2023-05-08T04:58:12;100874.69;;;8.83;83.95
72961;BME280;61141;46.204;19.774;2023-05-08T05:01:16;100895.75;;;9.23;82.94
72961;BME280;61141;46.204;19.774;2023-05-08T05:04:18;100898.63;;;9.42;82.29
72961;BME280;61141;46.204;19.774;2023-05-08T05:07:22;100905.44;;;9.20;81.13
72961;BME280;61141;46.204;19.774;2023-05-08T05:10:25;100902.78;;;9.36;83.73
72961;BME280;61141;46.204;19.774;2023-05-08T05:13:29;100909.53;;;9.26;81.55
72961;BME280;61141;46.204;19.774;2023-05-08T05:16:32;100909.53;;;9.54;80.75
72961;BME280;61141;46.204;19.774;2023-05-08T05:19:35;100910.75;;;9.41;81.11
72961;BME280;61141;46.204;19.774;2023-05-08T05:22:38;100927.59;;;9.71;79.63
72961;BME280;61141;46.204;19.774;2023-05-08T05:25:42;100919.66;;;9.81;78.85
72961;BME280;61141;46.204;19.774;2023-05-08T05:28:45;100908.56;;;10.05;78.16
72961;BME280;61141;46.204;19.774;2023-05-08T05:31:48;100906.47;;;9.99;79.00
72961;BME280;61141;46.204;19.774;2023-05-08T05:34:51;100906.19;;;9.88;78.15
72961;BME280;61141;46.204;19.774;2023-05-08T05:37:56;100920.78;;;9.65;78.35
72961;BME280;61141;46.204;19.774;2023-05-08T05:40:59;100924.84;;;9.71;77.76
72961;BME280;61141;46.204;19.774;2023-05-08T05:44:03;100920.50;;;9.70;78.56
72961;BME280;61141;46.204;19.774;2023-05-08T05:47:06;100931.16;;;10.46;76.93
72961;BME280;61141;46.204;19.774;2023-05-08T05:50:13;100926.31;;;10.24;76.95
72961;BME280;61141;46.204;19.774;2023-05-08T05:53:16;100925.97;;;9.97;76.51
72961;BME280;61141;46.204;19.774;2023-05-08T05:56:19;100933.72;;;10.39;75.50
72961;BME280;61141;46.204;19.774;2023-05-08T05:59:23;100932.03;;;10.50;75.06
72961;BME280;61141;46.204;19.774;2023-05-08T06:02:26;100935.56;;;10.66;76.27
72961;BME280;61141;46.204;19.774;2023-05-08T06:05:30;100935.47;;;10.47;74.71
72961;BME280;61141;46.204;19.774;2023-05-08T06:08:33;100938.28;;;10.66;75.37
72961;BME280;61141;46.204;19.774;2023-05-08T06:11:36;100933.44;;;10.75;73.72
72961;BME280;61141;46.204;19.774;2023-05-08T06:14:39;100929.03;;;10.71;73.81
72961;BME280;61141;46.204;19.774;2023-05-08T06:17:44;100939.53;;;11.19;72.20
72961;BME280;61141;46.204;19.774;2023-05-08T06:20:47;100941.84;;;11.36;73.17
72961;BME280;61141;46.204;19.774;2023-05-08T06:23:50;100937.09;;;11.52;71.66
72961;BME280;61141;46.204;19.774;2023-05-08T06:26:52;100962.66;;;11.37;71.62
72961;BME280;61141;46.204;19.774;2023-05-08T06:29:56;100949.78;;;11.22;72.00
72961;BME280;61141;46.204;19.774;2023-05-08T06:32:59;100951.09;;;10.93;72.33
72961;BME280;61141;46.204;19.774;2023-05-08T06:36:03;100966.75;;;10.77;71.79
72961;BME280;61141;46.204;19.774;2023-05-08T06:39:07;100961.09;;;10.86;71.13
72961;BME280;61141;46.204;19.774;2023-05-08T06:42:11;100957.81;;;11.50;70.94
72961;BME280;61141;46.204;19.774;2023-05-08T06:45:14;100971.53;;;11.50;69.28
72961;BME280;61141;46.204;19.774;2023-05-08T06:48:17;100969.94;;;11.49;70.19
72961;BME280;61141;46.204;19.774;2023-05-08T06:51:20;100963.34;;;11.69;69.92
72961;BME280;61141;46.204;19.774;2023-05-08T06:54:25;100979.97;;;11.76;68.27
72961;BME280;61141;46.204;19.774;2023-05-08T06:57:28;100960.47;;;11.81;68.54
72961;BME280;61141;46.204;19.774;2023-05-08T07:00:32;100967.44;;;12.40;68.01
72961;BME280;61141;46.204;19.774;2023-05-08T07:03:34;100974.97;;;12.01;68.11
72961;BME280;61141;46.204;19.774;2023-05-08T07:06:38;100968.50;;;11.70;67.68
72961;BME280;61141;46.204;19.774;2023-05-08T07:09:41;100975.47;;;12.06;68.89
72961;BME280;61141;46.204;19.774;2023-05-08T07:12:44;100973.38;;;12.00;68.24
72961;BME280;61141;46.204;19.774;2023-05-08T07:15:47;100974.28;;;12.49;68.03
72961;BME280;61141;46.204;19.774;2023-05-08T07:18:51;100966.50;;;12.32;67.70
72961;BME280;61141;46.204;19.774;2023-05-08T07:21:54;100974.91;;;12.62;67.08
72961;BME280;61141;46.204;19.774;2023-05-08T07:24:57;100979.03;;;12.29;65.86
72961;BME280;61141;46.204;19.774;2023-05-08T07:28:00;100958.87;;;12.67;66.72
72961;BME280;61141;46.204;19.774;2023-05-08T07:31:04;100969.84;;;12.90;65.89
72961;BME280;61141;46.204;19.774;2023-05-08T07:34:08;100972.56;;;13.39;64.29
72961;BME280;61141;46.204;19.774;2023-05-08T07:37:11;100960.41;;;13.14;65.10
72961;BME280;61141;46.204;19.774;2023-05-08T07:40:14;100973.31;;;12.87;63.73
72961;BME280;61141;46.204;19.774;2023-05-08T07:43:17;100970.41;;;13.25;63.96
72961;BME280;61141;46.204;19.774;2023-05-08T07:46:20;100961.75;;;13.57;62.72
72961;BME280;61141;46.204;19.774;2023-05-08T07:49:24;100980.63;;;13.54;62.62
72961;BME280;61141;46.204;19.774;2023-05-08T07:52:27;100971.09;;;13.48;62.63
72961;BME280;61141;46.204;19.774;2023-05-08T07:55:30;100971.34;;;13.36;61.44
72961;BME280;61141;46.204;19.774;2023-05-08T07:58:33;100954.25;;;13.24;62.31
72961;BME280;61141;46.204;19.774;2023-05-08T08:01:36;100959.78;;;13.87;62.26
72961;BME280;61141;46.204;19.774;2023-05-08T08:04:40;100962.66;;;13.64;61.03
72961;BME280;61141;46.204;19.774;2023-05-08T08:07:43;100970.53;;;13.66;61.31
72961;BME280;61141;46.204;19.774;2023-05-08T08:10:46;100966.75;;;13.77;60.68
72961;BME280;61141;46.204;19.774;2023-05-08T08:13:49;100968.75;;;13.50;61.33
72961;BME280;61141;46.204;19.774;2023-05-08T08:16:52;100963.38;;;14.31;60.56
72961;BME280;61141;46.204;19.774;2023-05-08T08:19:55;100961.38;;;14.25;59.55
72961;BME280;61141;46.204;19.774;2023-05-08T08:22:59;100964.25;;;14.35;60.82
72961;BME280;61141;46.204;19.774;2023-05-08T08:26:01;100961.84;;;14.78;57.21
72961;BME280;61141;46.204;19.774;2023-05-08T08:29:04;100962.31;;;14.02;58.66
72961;BME280;61141;46.204;19.774;2023-05-08T08:32:07;100973.47;;;14.53;59.00
72961;BME280;61141;46.204;19.774;2023-05-08T08:35:10;100975.38;;;14.46;57.81
72961;BME280;61141;46.204;19.774;2023-05-08T08:38:14;100981.41;;;14.58;57.50
72961;BME280;61141;46.204;19.774;2023-05-08T08:41:17;100968.72;;;14.47;59.06
72961;BME280;61141;46.204;19.774;2023-05-08T08:44:20;100968.47;;;14.66;58.09
72961;BME280;61141;46.204;19.774;2023-05-08T08:47:30;100971.88;;;14.96;57.78
72961;BME280;61141;46.204;19.774;2023-05-08T08:50:41;100977.53;;;14.66;56.63
72961;BME280;61141;46.204;19.774;2023-05-08T08:53:45;100979.72;;;15.49;56.18
72961;BME280;61141;46.204;19.774;2023-05-08T08:56:52;100974.34;;;15.91;55.28
72961;BME280;61141;46.204;19.774;2023-05-08T08:59:56;100975.69;;;15.39;55.56
72961;BME280;61141;46.204;19.774;2023-05-08T09:03:01;100966.16;;;15.33;56.34
72961;BME280;61141;46.204;19.774;2023-05-08T09:06:06;100981.34;;;14.99;56.07
72961;BME280;61141;46.204;19.774;2023-05-08T09:09:11;100978.06;;;15.41;56.16
72961;BME280;61141;46.204;19.774;2023-05-08T09:12:14;100970.06;;;15.21;56.71
72961;BME280;61141;46.204;19.774;2023-05-08T09:15:17;100977.25;;;16.37;56.62
72961;BME280;61141;46.204;19.774;2023-05-08T09:18:20;100970.13;;;15.32;55.45
72961;BME280;61141;46.204;19.774;2023-05-08T09:21:23;100971.69;;;16.30;55.44
72961;BME280;61141;46.204;19.774;2023-05-08T09:28:14;100981.84;;;15.83;54.17
72961;BME280;61141;46.204;19.774;2023-05-08T09:31:17;100970.88;;;16.29;54.54
72961;BME280;61141;46.204;19.774;2023-05-08T09:34:28;100961.44;;;16.34;53.63
72961;BME280;61141;46.204;19.774;2023-05-08T09:37:32;100972.56;;;16.73;52.90
72961;BME280;61141;46.204;19.774;2023-05-08T09:40:35;100959.47;;;16.41;52.70
72961;BME280;61141;46.204;19.774;2023-05-08T09:43:38;100955.53;;;16.85;52.77
72961;BME280;61141;46.204;19.774;2023-05-08T09:46:41;100958.69;;;16.90;51.41
72961;BME280;61141;46.204;19.774;2023-05-08T09:50:05;100957.09;;;17.07;51.65
72961;BME280;61141;46.204;19.774;2023-05-08T09:53:08;100953.84;;;17.44;52.64
72961;BME280;61141;46.204;19.774;2023-05-08T09:56:12;100960.19;;;17.48;50.19
72961;BME280;61141;46.204;19.774;2023-05-08T09:59:27;100966.50;;;17.45;49.47
72961;BME280;61141;46.204;19.774;2023-05-08T10:02:31;100963.06;;;16.67;50.81
72961;BME280;61141;46.204;19.774;2023-05-08T10:05:34;100955.09;;;16.26;51.61
72961;BME280;61141;46.204;19.774;2023-05-08T10:08:37;100967.25;;;17.63;49.70
72961;BME280;61141;46.204;19.774;2023-05-08T10:11:47;100956.50;;;17.79;48.65
72961;BME280;61141;46.204;19.774;2023-05-08T10:14:53;100957.34;;;17.69;48.09
72961;BME280;61141;46.204;19.774;2023-05-08T10:18:05;100969.88;;;17.98;48.90
72961;BME280;61141;46.204;19.774;2023-05-08T10:21:08;100959.37;;;17.44;48.32
72961;BME280;61141;46.204;19.774;2023-05-08T10:24:16;100962.94;;;17.58;48.47
72961;BME280;61141;46.204;19.774;2023-05-08T10:27:23;100959.09;;;17.07;48.32
72961;BME280;61141;46.204;19.774;2023-05-08T10:30:33;100963.75;;;17.41;48.58
72961;BME280;61141;46.204;19.774;2023-05-08T10:33:39;100960.22;;;17.27;48.59
72961;BME280;61141;46.204;19.774;2023-05-08T10:36:43;100964.56;;;17.28;48.46
72961;BME280;61141;46.204;19.774;2023-05-08T10:39:48;100965.72;;;17.41;48.00
72961;BME280;61141;46.204;19.774;2023-05-08T10:42:52;100967.31;;;17.35;48.81
72961;BME280;61141;46.204;19.774;2023-05-08T10:45:56;100962.25;;;18.13;47.38
72961;BME280;61141;46.204;19.774;2023-05-08T10:55:37;100956.84;;;17.92;47.12
72961;BME280;61141;46.204;19.774;2023-05-08T10:58:54;100941.06;;;18.44;46.43
72961;BME280;61141;46.204;19.774;2023-05-08T11:02:03;100970.34;;;18.55;46.23
72961;BME280;61141;46.204;19.774;2023-05-08T11:05:14;100949.59;;;18.67;45.88
72961;BME280;61141;46.204;19.774;2023-05-08T11:08:20;100941.94;;;17.61;46.92
72961;BME280;61141;46.204;19.774;2023-05-08T11:11:30;100954.16;;;17.74;47.63
72961;BME280;61141;46.204;19.774;2023-05-08T11:14:39;100951.97;;;18.10;46.88
72961;BME280;61141;46.204;19.774;2023-05-08T11:17:52;100962.69;;;18.11;46.48
72961;BME280;61141;46.204;19.774;2023-05-08T11:21:04;100950.88;;;17.93;46.41
72961;BME280;61141;46.204;19.774;2023-05-08T11:24:09;100967.28;;;18.32;45.97
72961;BME280;61141;46.204;19.774;2023-05-08T11:27:14;100961.25;;;17.82;46.21
72961;BME280;61141;46.204;19.774;2023-05-08T11:30:21;100959.69;;;17.78;46.20
72961;BME280;61141;46.204;19.774;2023-05-08T11:33:30;100941.56;;;18.28;45.81
72961;BME280;61141;46.204;19.774;2023-05-08T11:36:35;100951.09;;;18.78;45.17
72961;BME280;61141;46.204;19.774;2023-05-08T11:39:38;100947.06;;;18.87;44.24
72961;BME280;61141;46.204;19.774;2023-05-08T11:42:41;100946.13;;;19.00;44.65
72961;BME280;61141;46.204;19.774;2023-05-08T11:45:45;100943.03;;;18.47;44.95
72961;BME280;61141;46.204;19.774;2023-05-08T11:48:48;100942.25;;;17.77;44.89
72961;BME280;61141;46.204;19.774;2023-05-08T11:51:53;100932.63;;;18.03;45.12
72961;BME280;61141;46.204;19.774;2023-05-08T11:55:04;100941.28;;;18.67;45.10
72961;BME280;61141;46.204;19.774;2023-05-08T11:58:11;100926.88;;;18.31;45.03
72961;BME280;61141;46.204;19.774;2023-05-08T12:01:19;100933.44;;;18.00;45.18
72961;BME280;61141;46.204;19.774;2023-05-08T12:04:23;100932.81;;;18.85;44.66
72961;BME280;61141;46.204;19.774;2023-05-08T12:07:26;100942.88;;;18.68;45.20
72961;BME280;61141;46.204;19.774;2023-05-08T12:10:30;100929.22;;;18.36;44.79
72961;BME280;61141;46.204;19.774;2023-05-08T12:13:32;100938.66;;;18.46;44.26
72961;BME280;61141;46.204;19.774;2023-05-08T12:16:37;100942.06;;;18.71;43.86
72961;BME280;61141;46.204;19.774;2023-05-08T12:19:40;100945.37;;;18.45;43.45
72961;BME280;61141;46.204;19.774;2023-05-08T12:22:50;100945.13;;;19.21;43.30
72961;BME280;61141;46.204;19.774;2023-05-08T12:25:57;100949.97;;;19.51;42.31
72961;BME280;61141;46.204;19.774;2023-05-08T12:29:00;100939.16;;;19.22;42.52
72961;BME280;61141;46.204;19.774;2023-05-08T12:32:12;100945.72;;;18.61;42.67
72961;BME280;61141;46.204;19.774;2023-05-08T12:35:15;100937.03;;;19.33;42.26
72961;BME280;61141;46.204;19.774;2023-05-08T12:38:18;100948.34;;;19.87;40.45
72961;BME280;61141;46.204;19.774;2023-05-08T12:41:24;100951.34;;;18.95;41.93
72961;BME280;61141;46.204;19.774;2023-05-08T12:44:29;100965.53;;;19.04;41.87
72961;BME280;61141;46.204;19.774;2023-05-08T12:47:32;100949.06;;;19.23;42.28
72961;BME280;61141;46.204;19.774;2023-05-08T12:50:36;100941.84;;;19.33;42.65
72961;BME280;61141;46.204;19.774;2023-05-08T12:53:40;100949.72;;;19.72;41.46
72961;BME280;61141;46.204;19.774;2023-05-08T12:56:42;100941.34;;;19.04;42.27
72961;BME280;61141;46.204;19.774;2023-05-08T12:59:46;100941.38;;;19.01;43.39
72961;BME280;61141;46.204;19.774;2023-05-08T13:02:53;100931.84;;;19.73;42.44
72961;BME280;61141;46.204;19.774;2023-05-08T13:05:57;100939.31;;;20.06;42.42
72961;BME280;61141;46.204;19.774;2023-05-08T13:09:00;100944.03;;;19.52;43.59
72961;BME280;61141;46.204;19.774;2023-05-08T13:12:03;100942.94;;;19.43;42.99
72961;BME280;61141;46.204;19.774;2023-05-08T13:15:09;100935.22;;;19.57;42.41
72961;BME280;61141;46.204;19.774;2023-05-08T13:18:13;100934.00;;;19.88;41.59
72961;BME280;61141;46.204;19.774;2023-05-08T13:21:16;100945.28;;;19.07;42.15
72961;BME280;61141;46.204;19.774;2023-05-08T13:24:19;100938.00;;;19.20;43.12
72961;BME280;61141;46.204;19.774;2023-05-08T13:27:22;100941.06;;;19.29;42.00
72961;BME280;61141;46.204;19.774;2023-05-08T13:30:25;100937.19;;;19.19;42.67
72961;BME280;61141;46.204;19.774;2023-05-08T13:33:28;100933.59;;;19.60;41.61
72961;BME280;61141;46.204;19.774;2023-05-08T13:36:31;100939.78;;;19.74;41.01
72961;BME280;61141;46.204;19.774;2023-05-08T13:39:33;100935.41;;;19.73;41.52
72961;BME280;61141;46.204;19.774;2023-05-08T13:42:39;100938.69;;;19.95;41.08
72961;BME280;61141;46.204;19.774;2023-05-08T13:45:41;100952.03;;;20.07;40.36
72961;BME280;61141;46.204;19.774;2023-05-08T13:48:44;100945.84;;;19.66;41.39
72961;BME280;61141;46.204;19.774;2023-05-08T13:51:47;100947.34;;;20.01;40.03
72961;BME280;61141;46.204;19.774;2023-05-08T13:54:58;100946.50;;;19.77;40.99
72961;BME280;61141;46.204;19.774;2023-05-08T13:58:01;100946.47;;;19.47;40.53
72961;BME280;61141;46.204;19.774;2023-05-08T14:01:04;100931.75;;;19.50;40.32
72961;BME280;61141;46.204;19.774;2023-05-08T14:04:27;100941.03;;;19.32;40.96
72961;BME280;61141;46.204;19.774;2023-05-08T14:07:29;100943.94;;;19.22;42.25
72961;BME280;61141;46.204;19.774;2023-05-08T14:10:33;100936.78;;;18.84;42.93
72961;BME280;61141;46.204;19.774;2023-05-08T14:13:38;100933.53;;;18.92;42.18
72961;BME280;61141;46.204;19.774;2023-05-08T14:16:41;100937.56;;;19.59;41.72
72961;BME280;61141;46.204;19.774;2023-05-08T14:19:43;100932.00;;;19.59;41.80
72961;BME280;61141;46.204;19.774;2023-05-08T14:22:47;100927.16;;;19.97;41.36
72961;BME280;61141;46.204;19.774;2023-05-08T14:25:50;100939.47;;;19.96;42.04
72961;BME280;61141;46.204;19.774;2023-05-08T14:28:53;100931.66;;;19.57;41.63
72961;BME280;61141;46.204;19.774;2023-05-08T14:31:56;100932.72;;;20.50;40.74
72961;BME280;61141;46.204;19.774;2023-05-08T14:34:59;100942.16;;;20.03;41.83
72961;BME280;61141;46.204;19.774;2023-05-08T14:38:02;100930.59;;;20.58;41.35
72961;BME280;61141;46.204;19.774;2023-05-08T14:41:06;100939.22;;;20.13;41.83
72961;BME280;61141;46.204;19.774;2023-05-08T14:44:08;100938.97;;;20.04;41.56
72961;BME280;61141;46.204;19.774;2023-05-08T14:47:11;100949.06;;;19.61;41.68
72961;BME280;61141;46.204;19.774;2023-05-08T14:50:14;100940.44;;;20.12;41.45
72961;BME280;61141;46.204;19.774;2023-05-08T14:53:17;100943.31;;;20.05;41.48
72961;BME280;61141;46.204;19.774;2023-05-08T14:56:20;100952.91;;;18.99;43.36
72961;BME280;61141;46.204;19.774;2023-05-08T14:59:26;100954.28;;;19.18;43.04
72961;BME280;61141;46.204;19.774;2023-05-08T15:02:29;100948.63;;;18.91;43.68
72961;BME280;61141;46.204;19.774;2023-05-08T15:05:32;100947.00;;;19.99;42.09
72961;BME280;61141;46.204;19.774;2023-05-08T15:08:44;100943.13;;;19.59;42.87
72961;BME280;61141;46.204;19.774;2023-05-08T15:11:47;100939.03;;;18.96;42.46
72961;BME280;61141;46.204;19.774;2023-05-08T15:14:50;100937.19;;;18.82;43.21
72961;BME280;61141;46.204;19.774;2023-05-08T15:17:53;100955.37;;;18.39;44.61
72961;BME280;61141;46.204;19.774;2023-05-08T15:20:56;100950.00;;;19.10;44.38
72961;BME280;61141;46.204;19.774;2023-05-08T15:24:01;100952.72;;;19.54;43.67
72961;BME280;61141;46.204;19.774;2023-05-08T15:27:04;100961.34;;;19.26;43.34
72961;BME280;61141;46.204;19.774;2023-05-08T15:30:08;100956.81;;;19.46;43.91
72961;BME280;61141;46.204;19.774;2023-05-08T15:33:11;100960.03;;;19.37;43.83
72961;BME280;61141;46.204;19.774;2023-05-08T15:36:14;100964.62;;;18.73;44.00
72961;BME280;61141;46.204;19.774;2023-05-08T15:39:17;100961.47;;;18.12;45.27
72961;BME280;61141;46.204;19.774;2023-05-08T15:42:20;100962.53;;;18.33;44.96
72961;BME280;61141;46.204;19.774;2023-05-08T15:45:23;100963.41;;;18.23;45.53
72961;BME280;61141;46.204;19.774;2023-05-08T15:48:26;100960.81;;;17.87;46.12
72961;BME280;61141;46.204;19.774;2023-05-08T15:51:29;100954.47;;;17.90;46.21
72961;BME280;61141;46.204;19.774;2023-05-08T15:54:32;100957.59;;;17.99;46.63
72961;BME280;61141;46.204;19.774;2023-05-08T15:57:35;100966.03;;;17.71;47.07
72961;BME280;61141;46.204;19.774;2023-05-08T16:00:38;100964.44;;;17.81;47.14
72961;BME280;61141;46.204;19.774;2023-05-08T16:03:47;100961.19;;;17.93;47.13
72961;BME280;61141;46.204;19.774;2023-05-08T16:06:49;100971.53;;;17.85;46.70
72961;BME280;61141;46.204;19.774;2023-05-08T16:09:52;100952.41;;;18.08;45.68
72961;BME280;61141;46.204;19.774;2023-05-08T16:12:55;100958.25;;;18.21;45.26
72961;BME280;61141;46.204;19.774;2023-05-08T16:16:04;100971.81;;;18.05;46.30
72961;BME280;61141;46.204;19.774;2023-05-08T16:19:07;100949.88;;;17.55;47.50